sensor_id;sensor_type;location;lat;lon;timestamp;P1;durP1;ratioP1;P2;durP2;ratioP2
23782;SDS011;12071;50.850;4.446;2023-04-03T00:01:15;21.80;;;14.63;;
23782;SDS011;12071;50.850;4.446;2023-04-03T00:03:41;23.42;;;14.27;;
23782;SDS011;12071;50.850;4.446;2023-04-03T00:06:08;21.23;;;15.50;;
23782;SDS011;12071;50.850;4.446;2023-04-03T00:08:35;22.17;;;15.23;;
23782;SDS011;12071;50.850;4.446;2023-04-03T00:11:01;21.00;;;15.05;;
23782;SDS011;12071;50.850;4.446;2023-04-03T00:13:27;23.40;;;15.30;;
23782;SDS011;12071;50.850;4.446;2023-04-03T00:15:53;19.38;;;14.57;;
23782;SDS011;12071;50.850;4.446;2023-04-03T00:18:19;19.70;;;15.07;;
23782;SDS011;12071;50.850;4.446;2023-04-03T00:20:44;22.67;;;14.88;;
23782;SDS011;12071;50.850;4.446;2023-04-03T00:23:10;22.25;;;15.07;;
23782;SDS011;12071;50.850;4.446;2023-04-03T00:25:36;19.55;;;14.50;;
23782;SDS011;12071;50.850;4.446;2023-04-03T00:28:03;21.67;;;14.40;;
23782;SDS011;12071;50.850;4.446;2023-04-03T00:30:29;18.40;;;13.23;;
23782;SDS011;12071;50.850;4.446;2023-04-03T00:32:56;17.33;;;12.43;;
23782;SDS011;12071;50.850;4.446;2023-04-03T00:35:22;18.15;;;13.40;;
23782;SDS011;12071;50.850;4.446;2023-04-03T00:37:50;16.77;;;12.25;;
23782;SDS011;12071;50.850;4.446;2023-04-03T00:40:17;20.48;;;12.18;;
23782;SDS011;12071;50.850;4.446;2023-04-03T00:42:43;16.88;;;11.93;;
23782;SDS011;12071;50.850;4.446;2023-04-03T00:47:38;18.23;;;11.63;;
23782;SDS011;12071;50.850;4.446;2023-04-03T00:50:05;16.38;;;11.90;;
23782;SDS011;12071;50.850;4.446;2023-04-03T00:52:32;15.18;;;10.20;;
23782;SDS011;12071;50.850;4.446;2023-04-03T00:54:58;19.38;;;11.65;;
23782;SDS011;12071;50.850;4.446;2023-04-03T00:57:28;16.08;;;11.32;;
23782;SDS011;12071;50.850;4.446;2023-04-03T00:59:57;15.68;;;11.32;;
23782;SDS011;12071;50.850;4.446;2023-04-03T01:02:29;15.48;;;11.48;;
23782;SDS011;12071;50.850;4.446;2023-04-03T01:04:55;16.35;;;10.82;;
23782;SDS011;12071;50.850;4.446;2023-04-03T01:07:21;14.05;;;11.20;;
23782;SDS011;12071;50.850;4.446;2023-04-03T01:09:51;20.08;;;10.52;;
23782;SDS011;12071;50.850;4.446;2023-04-03T01:12:30;15.20;;;11.45;;
23782;SDS011;12071;50.850;4.446;2023-04-03T01:15:00;15.50;;;11.57;;
23782;SDS011;12071;50.850;4.446;2023-04-03T01:17:38;15.77;;;10.50;;
23782;SDS011;12071;50.850;4.446;2023-04-03T01:25:23;15.50;;;10.57;;
23782;SDS011;12071;50.850;4.446;2023-04-03T01:27:49;12.98;;;11.15;;
23782;SDS011;12071;50.850;4.446;2023-04-03T01:30:16;16.33;;;10.23;;
23782;SDS011;12071;50.850;4.446;2023-04-03T01:32:43;13.73;;;10.70;;
23782;SDS011;12071;50.850;4.446;2023-04-03T01:35:09;18.48;;;10.85;;
23782;SDS011;12071;50.850;4.446;2023-04-03T01:37:35;13.18;;;9.98;;
23782;SDS011;12071;50.850;4.446;2023-04-03T01:40:01;12.85;;;9.88;;
23782;SDS011;12071;50.850;4.446;2023-04-03T01:42:28;16.70;;;9.73;;
23782;SDS011;12071;50.850;4.446;2023-04-03T01:44:54;13.25;;;10.00;;
23782;SDS011;12071;50.850;4.446;2023-04-03T01:47:20;16.90;;;9.95;;
23782;SDS011;12071;50.850;4.446;2023-04-03T01:49:46;16.17;;;10.32;;
23782;SDS011;12071;50.850;4.446;2023-04-03T01:52:11;12.48;;;10.32;;
23782;SDS011;12071;50.850;4.446;2023-04-03T01:54:37;13.32;;;10.13;;
23782;SDS011;12071;50.850;4.446;2023-04-03T01:57:03;13.10;;;9.85;;
23782;SDS011;12071;50.850;4.446;2023-04-03T01:59:28;14.52;;;9.82;;
23782;SDS011;12071;50.850;4.446;2023-04-03T02:01:54;15.10;;;10.32;;
23782;SDS011;12071;50.850;4.446;2023-04-03T02:04:20;14.00;;;9.85;;
23782;SDS011;12071;50.850;4.446;2023-04-03T02:06:45;12.32;;;9.57;;
23782;SDS011;12071;50.850;4.446;2023-04-03T02:09:11;14.77;;;9.95;;
23782;SDS011;12071;50.850;4.446;2023-04-03T02:11:37;14.43;;;10.15;;
23782;SDS011;12071;50.850;4.446;2023-04-03T02:14:02;16.35;;;10.23;;
23782;SDS011;12071;50.850;4.446;2023-04-03T02:16:28;17.63;;;10.27;;
23782;SDS011;12071;50.850;4.446;2023-04-03T02:18:54;13.40;;;9.80;;
23782;SDS011;12071;50.850;4.446;2023-04-03T02:21:19;15.70;;;10.57;;
23782;SDS011;12071;50.850;4.446;2023-04-03T02:23:45;12.88;;;9.27;;
23782;SDS011;12071;50.850;4.446;2023-04-03T02:26:11;15.10;;;10.10;;
23782;SDS011;12071;50.850;4.446;2023-04-03T02:28:39;15.02;;;10.38;;
23782;SDS011;12071;50.850;4.446;2023-04-03T02:31:06;14.95;;;10.77;;
23782;SDS011;12071;50.850;4.446;2023-04-03T02:33:33;17.50;;;10.45;;
23782;SDS011;12071;50.850;4.446;2023-04-03T02:35:59;14.52;;;10.40;;
23782;SDS011;12071;50.850;4.446;2023-04-03T02:38:24;15.15;;;10.30;;
23782;SDS011;12071;50.850;4.446;2023-04-03T02:40:50;14.77;;;9.75;;
23782;SDS011;12071;50.850;4.446;2023-04-03T02:43:16;15.38;;;10.10;;
23782;SDS011;12071;50.850;4.446;2023-04-03T02:45:42;15.70;;;10.38;;
23782;SDS011;12071;50.850;4.446;2023-04-03T02:48:08;14.45;;;10.55;;
23782;SDS011;12071;50.850;4.446;2023-04-03T02:50:34;15.27;;;9.98;;
23782;SDS011;12071;50.850;4.446;2023-04-03T02:52:59;15.00;;;10.68;;
23782;SDS011;12071;50.850;4.446;2023-04-03T02:55:25;14.10;;;10.25;;
23782;SDS011;12071;50.850;4.446;2023-04-03T02:57:51;14.10;;;10.90;;
23782;SDS011;12071;50.850;4.446;2023-04-03T03:00:16;15.48;;;10.65;;
23782;SDS011;12071;50.850;4.446;2023-04-03T03:02:42;18.25;;;10.70;;
23782;SDS011;12071;50.850;4.446;2023-04-03T03:05:08;14.52;;;10.27;;
23782;SDS011;12071;50.850;4.446;2023-04-03T03:07:34;14.55;;;10.38;;
23782;SDS011;12071;50.850;4.446;2023-04-03T03:09:59;17.52;;;11.00;;
23782;SDS011;12071;50.850;4.446;2023-04-03T03:12:25;15.32;;;11.02;;
23782;SDS011;12071;50.850;4.446;2023-04-03T03:14:50;13.75;;;10.55;;
23782;SDS011;12071;50.850;4.446;2023-04-03T03:17:17;15.48;;;10.90;;
23782;SDS011;12071;50.850;4.446;2023-04-03T03:19:42;13.70;;;10.85;;
23782;SDS011;12071;50.850;4.446;2023-04-03T03:22:09;15.50;;;10.93;;
23782;SDS011;12071;50.850;4.446;2023-04-03T03:24:34;15.13;;;10.10;;
23782;SDS011;12071;50.850;4.446;2023-04-03T03:27:00;15.48;;;11.35;;
23782;SDS011;12071;50.850;4.446;2023-04-03T03:29:25;14.10;;;10.95;;
23782;SDS011;12071;50.850;4.446;2023-04-03T03:31:51;15.38;;;11.27;;
23782;SDS011;12071;50.850;4.446;2023-04-03T03:34:17;16.55;;;11.05;;
23782;SDS011;12071;50.850;4.446;2023-04-03T03:36:42;18.67;;;11.77;;
23782;SDS011;12071;50.850;4.446;2023-04-03T03:39:08;17.38;;;11.85;;
23782;SDS011;12071;50.850;4.446;2023-04-03T03:41:34;14.52;;;10.77;;
23782;SDS011;12071;50.850;4.446;2023-04-03T03:44:00;14.90;;;11.55;;
23782;SDS011;12071;50.850;4.446;2023-04-03T03:46:26;15.15;;;11.23;;
23782;SDS011;12071;50.850;4.446;2023-04-03T03:48:51;14.88;;;11.77;;
23782;SDS011;12071;50.850;4.446;2023-04-03T03:51:17;17.45;;;11.55;;
23782;SDS011;12071;50.850;4.446;2023-04-03T03:53:43;19.00;;;11.27;;
23782;SDS011;12071;50.850;4.446;2023-04-03T03:56:08;17.55;;;11.02;;
23782;SDS011;12071;50.850;4.446;2023-04-03T03:58:35;17.83;;;12.15;;
23782;SDS011;12071;50.850;4.446;2023-04-03T04:01:05;15.75;;;11.50;;
23782;SDS011;12071;50.850;4.446;2023-04-03T04:03:32;17.42;;;11.30;;
23782;SDS011;12071;50.850;4.446;2023-04-03T04:05:57;18.60;;;12.48;;
23782;SDS011;12071;50.850;4.446;2023-04-03T04:08:23;16.60;;;12.63;;
23782;SDS011;12071;50.850;4.446;2023-04-03T04:10:49;20.63;;;11.45;;
23782;SDS011;12071;50.850;4.446;2023-04-03T04:13:15;19.85;;;11.50;;
23782;SDS011;12071;50.850;4.446;2023-04-03T04:15:41;17.00;;;12.13;;
23782;SDS011;12071;50.850;4.446;2023-04-03T04:18:07;17.80;;;12.52;;
23782;SDS011;12071;50.850;4.446;2023-04-03T04:20:33;17.77;;;12.68;;
23782;SDS011;12071;50.850;4.446;2023-04-03T04:22:59;18.77;;;13.07;;
23782;SDS011;12071;50.850;4.446;2023-04-03T04:25:24;16.90;;;12.88;;
23782;SDS011;12071;50.850;4.446;2023-04-03T04:27:50;18.52;;;13.05;;
23782;SDS011;12071;50.850;4.446;2023-04-03T04:30:16;17.85;;;12.98;;
23782;SDS011;12071;50.850;4.446;2023-04-03T04:32:41;19.20;;;14.00;;
23782;SDS011;12071;50.850;4.446;2023-04-03T04:35:07;17.67;;;13.40;;
23782;SDS011;12071;50.850;4.446;2023-04-03T04:37:33;31.25;;;15.35;;
23782;SDS011;12071;50.850;4.446;2023-04-03T04:39:58;17.52;;;13.38;;
23782;SDS011;12071;50.850;4.446;2023-04-03T04:42:24;22.60;;;13.95;;
23782;SDS011;12071;50.850;4.446;2023-04-03T04:44:50;19.42;;;13.88;;
23782;SDS011;12071;50.850;4.446;2023-04-03T04:47:15;247.10;;;27.13;;
23782;SDS011;12071;50.850;4.446;2023-04-03T04:49:41;26.30;;;17.65;;
23782;SDS011;12071;50.850;4.446;2023-04-03T04:52:07;21.85;;;15.45;;
23782;SDS011;12071;50.850;4.446;2023-04-03T04:54:33;36.35;;;16.63;;
23782;SDS011;12071;50.850;4.446;2023-04-03T04:56:58;33.25;;;18.40;;
23782;SDS011;12071;50.850;4.446;2023-04-03T04:59:24;23.42;;;15.88;;
23782;SDS011;12071;50.850;4.446;2023-04-03T05:01:50;27.80;;;18.90;;
23782;SDS011;12071;50.850;4.446;2023-04-03T05:04:16;21.83;;;17.00;;
23782;SDS011;12071;50.850;4.446;2023-04-03T05:06:41;24.92;;;16.38;;
23782;SDS011;12071;50.850;4.446;2023-04-03T05:09:07;28.27;;;17.35;;
23782;SDS011;12071;50.850;4.446;2023-04-03T05:11:34;22.42;;;17.00;;
23782;SDS011;12071;50.850;4.446;2023-04-03T05:14:01;28.10;;;16.98;;
23782;SDS011;12071;50.850;4.446;2023-04-03T05:16:26;27.45;;;16.75;;
23782;SDS011;12071;50.850;4.446;2023-04-03T05:18:52;27.38;;;18.35;;
23782;SDS011;12071;50.850;4.446;2023-04-03T05:21:17;32.60;;;20.70;;
23782;SDS011;12071;50.850;4.446;2023-04-03T05:23:43;26.20;;;17.25;;
23782;SDS011;12071;50.850;4.446;2023-04-03T05:26:09;29.35;;;17.73;;
23782;SDS011;12071;50.850;4.446;2023-04-03T05:28:35;24.23;;;16.42;;
23782;SDS011;12071;50.850;4.446;2023-04-03T05:31:01;24.10;;;16.23;;
23782;SDS011;12071;50.850;4.446;2023-04-03T05:33:27;26.48;;;15.50;;
23782;SDS011;12071;50.850;4.446;2023-04-03T05:35:53;35.78;;;18.17;;
23782;SDS011;12071;50.850;4.446;2023-04-03T05:38:19;31.73;;;17.17;;
23782;SDS011;12071;50.850;4.446;2023-04-03T05:40:45;31.08;;;17.13;;
23782;SDS011;12071;50.850;4.446;2023-04-03T05:43:13;26.23;;;17.35;;
23782;SDS011;12071;50.850;4.446;2023-04-03T05:45:39;24.85;;;16.38;;
23782;SDS011;12071;50.850;4.446;2023-04-03T05:48:04;30.08;;;19.08;;
23782;SDS011;12071;50.850;4.446;2023-04-03T05:50:30;64.50;;;27.42;;
23782;SDS011;12071;50.850;4.446;2023-04-03T05:52:56;29.48;;;19.10;;
23782;SDS011;12071;50.850;4.446;2023-04-03T05:55:23;31.92;;;19.30;;
23782;SDS011;12071;50.850;4.446;2023-04-03T05:57:49;29.20;;;19.55;;
23782;SDS011;12071;50.850;4.446;2023-04-03T06:00:15;28.65;;;18.60;;
23782;SDS011;12071;50.850;4.446;2023-04-03T06:02:41;33.95;;;18.50;;
23782;SDS011;12071;50.850;4.446;2023-04-03T06:05:07;27.98;;;18.85;;
23782;SDS011;12071;50.850;4.446;2023-04-03T06:07:34;34.70;;;18.63;;
23782;SDS011;12071;50.850;4.446;2023-04-03T06:10:00;31.70;;;20.02;;
23782;SDS011;12071;50.850;4.446;2023-04-03T06:12:26;28.90;;;19.45;;
23782;SDS011;12071;50.850;4.446;2023-04-03T06:14:53;27.05;;;18.85;;
23782;SDS011;12071;50.850;4.446;2023-04-03T06:17:19;32.10;;;19.83;;
23782;SDS011;12071;50.850;4.446;2023-04-03T06:19:45;30.98;;;20.42;;
23782;SDS011;12071;50.850;4.446;2023-04-03T06:22:11;27.83;;;19.42;;
23782;SDS011;12071;50.850;4.446;2023-04-03T06:24:36;29.25;;;19.45;;
23782;SDS011;12071;50.850;4.446;2023-04-03T06:27:02;28.80;;;18.70;;
23782;SDS011;12071;50.850;4.446;2023-04-03T06:29:28;28.08;;;19.08;;
23782;SDS011;12071;50.850;4.446;2023-04-03T06:31:54;29.48;;;19.13;;
23782;SDS011;12071;50.850;4.446;2023-04-03T06:34:20;30.42;;;19.05;;
23782;SDS011;12071;50.850;4.446;2023-04-03T06:36:46;28.83;;;18.75;;
23782;SDS011;12071;50.850;4.446;2023-04-03T06:39:15;29.95;;;17.38;;
23782;SDS011;12071;50.850;4.446;2023-04-03T06:41:45;26.77;;;17.98;;
23782;SDS011;12071;50.850;4.446;2023-04-03T06:44:11;24.52;;;18.05;;
23782;SDS011;12071;50.850;4.446;2023-04-03T06:46:40;24.10;;;16.33;;
23782;SDS011;12071;50.850;4.446;2023-04-03T06:49:06;24.25;;;16.80;;
23782;SDS011;12071;50.850;4.446;2023-04-03T06:51:35;21.80;;;16.38;;
23782;SDS011;12071;50.850;4.446;2023-04-03T06:54:02;21.60;;;16.30;;
23782;SDS011;12071;50.850;4.446;2023-04-03T06:56:28;24.48;;;16.42;;
23782;SDS011;12071;50.850;4.446;2023-04-03T06:58:54;22.30;;;15.75;;
23782;SDS011;12071;50.850;4.446;2023-04-03T07:01:21;22.33;;;15.68;;
23782;SDS011;12071;50.850;4.446;2023-04-03T07:03:50;21.50;;;14.98;;
23782;SDS011;12071;50.850;4.446;2023-04-03T07:06:16;20.25;;;14.82;;
23782;SDS011;12071;50.850;4.446;2023-04-03T07:08:42;22.08;;;14.73;;
23782;SDS011;12071;50.850;4.446;2023-04-03T07:11:08;20.20;;;14.27;;
23782;SDS011;12071;50.850;4.446;2023-04-03T07:13:34;20.40;;;14.15;;
23782;SDS011;12071;50.850;4.446;2023-04-03T07:16:01;17.98;;;13.20;;
23782;SDS011;12071;50.850;4.446;2023-04-03T07:18:29;17.23;;;12.60;;
23782;SDS011;12071;50.850;4.446;2023-04-03T07:20:54;19.33;;;13.25;;
23782;SDS011;12071;50.850;4.446;2023-04-03T07:23:20;16.92;;;12.85;;
23782;SDS011;12071;50.850;4.446;2023-04-03T07:25:47;15.00;;;12.48;;
23782;SDS011;12071;50.850;4.446;2023-04-03T07:28:14;16.67;;;12.60;;
23782;SDS011;12071;50.850;4.446;2023-04-03T07:30:45;18.80;;;12.18;;
23782;SDS011;12071;50.850;4.446;2023-04-03T07:33:14;16.20;;;12.18;;
23782;SDS011;12071;50.850;4.446;2023-04-03T07:35:40;15.27;;;11.70;;
23782;SDS011;12071;50.850;4.446;2023-04-03T07:38:07;15.88;;;11.75;;
23782;SDS011;12071;50.850;4.446;2023-04-03T07:40:33;16.67;;;11.20;;
23782;SDS011;12071;50.850;4.446;2023-04-03T07:43:00;17.33;;;12.15;;
23782;SDS011;12071;50.850;4.446;2023-04-03T07:45:25;14.60;;;11.65;;
23782;SDS011;12071;50.850;4.446;2023-04-03T07:47:51;17.15;;;10.80;;
23782;SDS011;12071;50.850;4.446;2023-04-03T07:50:17;13.18;;;10.73;;
23782;SDS011;12071;50.850;4.446;2023-04-03T07:52:43;16.08;;;10.38;;
23782;SDS011;12071;50.850;4.446;2023-04-03T07:55:10;14.30;;;10.20;;
23782;SDS011;12071;50.850;4.446;2023-04-03T07:57:36;12.63;;;9.93;;
23782;SDS011;12071;50.850;4.446;2023-04-03T08:00:02;13.10;;;9.80;;
23782;SDS011;12071;50.850;4.446;2023-04-03T08:02:29;14.02;;;9.95;;
23782;SDS011;12071;50.850;4.446;2023-04-03T08:04:56;16.00;;;10.38;;
23782;SDS011;12071;50.850;4.446;2023-04-03T08:07:23;14.82;;;9.60;;
23782;SDS011;12071;50.850;4.446;2023-04-03T08:09:48;13.20;;;9.50;;
23782;SDS011;12071;50.850;4.446;2023-04-03T08:12:14;13.38;;;9.52;;
23782;SDS011;12071;50.850;4.446;2023-04-03T08:14:40;14.18;;;9.55;;
23782;SDS011;12071;50.850;4.446;2023-04-03T08:17:06;12.65;;;9.48;;
23782;SDS011;12071;50.850;4.446;2023-04-03T08:19:38;14.82;;;9.23;;
23782;SDS011;12071;50.850;4.446;2023-04-03T08:22:04;11.07;;;8.50;;
23782;SDS011;12071;50.850;4.446;2023-04-03T08:24:31;14.75;;;8.73;;
23782;SDS011;12071;50.850;4.446;2023-04-03T08:26:58;9.52;;;8.07;;
23782;SDS011;12071;50.850;4.446;2023-04-03T08:29:24;14.30;;;8.35;;
23782;SDS011;12071;50.850;4.446;2023-04-03T08:31:50;10.60;;;7.85;;
23782;SDS011;12071;50.850;4.446;2023-04-03T08:34:16;9.15;;;7.28;;
23782;SDS011;12071;50.850;4.446;2023-04-03T08:36:42;11.80;;;7.78;;
23782;SDS011;12071;50.850;4.446;2023-04-03T08:39:08;12.25;;;7.28;;
23782;SDS011;12071;50.850;4.446;2023-04-03T08:41:42;11.85;;;6.97;;
23782;SDS011;12071;50.850;4.446;2023-04-03T08:44:26;10.30;;;7.25;;
23782;SDS011;12071;50.850;4.446;2023-04-03T08:49:44;12.55;;;6.00;;
23782;SDS011;12071;50.850;4.446;2023-04-03T08:52:19;8.65;;;5.90;;
23782;SDS011;12071;50.850;4.446;2023-04-03T08:55:13;10.55;;;6.00;;
23782;SDS011;12071;50.850;4.446;2023-04-03T08:57:50;8.52;;;5.95;;
23782;SDS011;12071;50.850;4.446;2023-04-03T09:00:23;9.95;;;5.60;;
23782;SDS011;12071;50.850;4.446;2023-04-03T09:02:54;9.48;;;5.88;;
23782;SDS011;12071;50.850;4.446;2023-04-03T09:21:57;5.75;;;4.22;;
23782;SDS011;12071;50.850;4.446;2023-04-03T09:24:34;7.97;;;4.40;;
23782;SDS011;12071;50.850;4.446;2023-04-03T09:27:03;6.85;;;3.42;;
23782;SDS011;12071;50.850;4.446;2023-04-03T09:29:32;7.97;;;3.35;;
23782;SDS011;12071;50.850;4.446;2023-04-03T09:34:54;7.63;;;3.25;;
23782;SDS011;12071;50.850;4.446;2023-04-03T09:40:42;6.13;;;3.30;;
23782;SDS011;12071;50.850;4.446;2023-04-03T09:43:23;5.78;;;2.80;;
23782;SDS011;12071;50.850;4.446;2023-04-03T09:45:53;5.88;;;2.83;;
23782;SDS011;12071;50.850;4.446;2023-04-03T09:48:21;8.68;;;2.95;;
23782;SDS011;12071;50.850;4.446;2023-04-03T09:50:58;7.20;;;2.60;;
23782;SDS011;12071;50.850;4.446;2023-04-03T09:56:01;4.90;;;3.00;;
23782;SDS011;12071;50.850;4.446;2023-04-03T10:01:21;7.50;;;2.55;;
23782;SDS011;12071;50.850;4.446;2023-04-03T10:06:41;7.88;;;2.60;;
23782;SDS011;12071;50.850;4.446;2023-04-03T10:12:08;6.97;;;2.67;;
23782;SDS011;12071;50.850;4.446;2023-04-03T10:14:40;6.72;;;2.38;;
23782;SDS011;12071;50.850;4.446;2023-04-03T10:28:01;7.43;;;2.10;;
23782;SDS011;12071;50.850;4.446;2023-04-03T10:30:36;5.93;;;2.25;;
23782;SDS011;12071;50.850;4.446;2023-04-03T10:41:12;4.20;;;2.08;;
23782;SDS011;12071;50.850;4.446;2023-04-03T10:46:45;4.15;;;2.25;;
23782;SDS011;12071;50.850;4.446;2023-04-03T10:49:25;3.95;;;1.90;;
23782;SDS011;12071;50.850;4.446;2023-04-03T10:52:06;4.80;;;1.50;;
23782;SDS011;12071;50.850;4.446;2023-04-03T10:57:50;4.00;;;1.98;;
23782;SDS011;12071;50.850;4.446;2023-04-03T11:00:41;5.30;;;2.00;;
23782;SDS011;12071;50.850;4.446;2023-04-03T11:03:10;3.05;;;1.40;;
23782;SDS011;12071;50.850;4.446;2023-04-03T11:05:43;3.05;;;1.73;;
23782;SDS011;12071;50.850;4.446;2023-04-03T11:08:13;2.83;;;1.40;;
23782;SDS011;12071;50.850;4.446;2023-04-03T11:10:48;3.88;;;1.23;;
23782;SDS011;12071;50.850;4.446;2023-04-03T11:16:12;3.85;;;1.27;;
23782;SDS011;12071;50.850;4.446;2023-04-03T11:18:43;4.90;;;1.60;;
23782;SDS011;12071;50.850;4.446;2023-04-03T11:21:18;4.90;;;1.40;;
23782;SDS011;12071;50.850;4.446;2023-04-03T11:23:47;4.30;;;1.77;;
23782;SDS011;12071;50.850;4.446;2023-04-03T11:26:15;4.82;;;1.58;;
23782;SDS011;12071;50.850;4.446;2023-04-03T11:28:43;4.63;;;1.45;;
23782;SDS011;12071;50.850;4.446;2023-04-03T11:36:24;5.25;;;1.63;;
23782;SDS011;12071;50.850;4.446;2023-04-03T11:38:57;4.95;;;1.40;;
23782;SDS011;12071;50.850;4.446;2023-04-03T11:41:29;5.35;;;1.70;;
23782;SDS011;12071;50.850;4.446;2023-04-03T11:44:00;3.45;;;1.50;;
23782;SDS011;12071;50.850;4.446;2023-04-03T11:46:48;2.47;;;1.25;;
23782;SDS011;12071;50.850;4.446;2023-04-03T12:26:36;3.63;;;1.30;;
23782;SDS011;12071;50.850;4.446;2023-04-03T12:29:24;4.18;;;1.40;;
23782;SDS011;12071;50.850;4.446;2023-04-03T12:37:19;4.40;;;1.63;;
23782;SDS011;12071;50.850;4.446;2023-04-03T12:45:29;3.58;;;1.40;;
23782;SDS011;12071;50.850;4.446;2023-04-03T12:48:12;2.07;;;1.07;;
23782;SDS011;12071;50.850;4.446;2023-04-03T12:50:46;3.03;;;1.40;;
23782;SDS011;12071;50.850;4.446;2023-04-03T12:53:18;4.28;;;1.20;;
23782;SDS011;12071;50.850;4.446;2023-04-03T12:55:47;7.50;;;1.20;;
23782;SDS011;12071;50.850;4.446;2023-04-03T12:58:25;2.75;;;1.23;;
23782;SDS011;12071;50.850;4.446;2023-04-03T13:00:59;1.83;;;0.98;;
23782;SDS011;12071;50.850;4.446;2023-04-03T13:03:28;2.15;;;1.10;;
23782;SDS011;12071;50.850;4.446;2023-04-03T13:05:57;2.75;;;1.00;;
23782;SDS011;12071;50.850;4.446;2023-04-03T13:08:25;4.75;;;1.13;;
23782;SDS011;12071;50.850;4.446;2023-04-03T13:13:22;3.78;;;1.55;;
23782;SDS011;12071;50.850;4.446;2023-04-03T13:15:48;2.88;;;1.23;;
23782;SDS011;12071;50.850;4.446;2023-04-03T13:18:25;3.72;;;1.13;;
23782;SDS011;12071;50.850;4.446;2023-04-03T13:20:56;5.60;;;1.10;;
23782;SDS011;12071;50.850;4.446;2023-04-03T13:23:30;3.42;;;1.00;;
23782;SDS011;12071;50.850;4.446;2023-04-03T13:25:59;2.88;;;1.30;;
23782;SDS011;12071;50.850;4.446;2023-04-03T13:28:29;2.00;;;1.00;;
23782;SDS011;12071;50.850;4.446;2023-04-03T13:31:05;5.15;;;1.20;;
23782;SDS011;12071;50.850;4.446;2023-04-03T13:33:51;3.58;;;1.40;;
23782;SDS011;12071;50.850;4.446;2023-04-03T13:36:21;4.30;;;1.42;;
23782;SDS011;12071;50.850;4.446;2023-04-03T13:39:00;4.22;;;1.40;;
23782;SDS011;12071;50.850;4.446;2023-04-03T13:41:30;5.47;;;1.48;;
23782;SDS011;12071;50.850;4.446;2023-04-03T13:44:14;3.63;;;1.65;;
23782;SDS011;12071;50.850;4.446;2023-04-03T13:46:52;4.18;;;1.30;;
23782;SDS011;12071;50.850;4.446;2023-04-03T13:49:22;4.80;;;1.30;;
23782;SDS011;12071;50.850;4.446;2023-04-03T13:51:58;4.18;;;1.60;;
23782;SDS011;12071;50.850;4.446;2023-04-03T13:54:46;5.47;;;1.67;;
23782;SDS011;12071;50.850;4.446;2023-04-03T13:57:15;3.53;;;1.45;;
23782;SDS011;12071;50.850;4.446;2023-04-03T13:59:41;4.18;;;1.70;;
23782;SDS011;12071;50.850;4.446;2023-04-03T14:07:01;3.85;;;1.17;;
23782;SDS011;12071;50.850;4.446;2023-04-03T14:09:27;3.95;;;1.52;;
23782;SDS011;12071;50.850;4.446;2023-04-03T14:11:54;4.57;;;1.33;;
23782;SDS011;12071;50.850;4.446;2023-04-03T14:14:30;2.50;;;1.33;;
23782;SDS011;12071;50.850;4.446;2023-04-03T14:17:00;3.05;;;1.50;;
23782;SDS011;12071;50.850;4.446;2023-04-03T14:19:34;1.88;;;1.20;;
23782;SDS011;12071;50.850;4.446;2023-04-03T14:22:05;1.70;;;1.08;;
23782;SDS011;12071;50.850;4.446;2023-04-03T14:24:37;5.60;;;1.70;;
23782;SDS011;12071;50.850;4.446;2023-04-03T14:27:05;4.68;;;1.30;;
23782;SDS011;12071;50.850;4.446;2023-04-03T14:29:42;3.35;;;1.63;;
23782;SDS011;12071;50.850;4.446;2023-04-03T14:32:10;3.28;;;1.30;;
23782;SDS011;12071;50.850;4.446;2023-04-03T14:34:37;6.03;;;1.50;;
23782;SDS011;12071;50.850;4.446;2023-04-03T14:37:04;4.22;;;1.35;;
23782;SDS011;12071;50.850;4.446;2023-04-03T14:39:30;3.50;;;1.23;;
23782;SDS011;12071;50.850;4.446;2023-04-03T14:41:56;4.30;;;1.42;;
23782;SDS011;12071;50.850;4.446;2023-04-03T14:44:22;3.72;;;1.20;;
23782;SDS011;12071;50.850;4.446;2023-04-03T14:46:48;3.28;;;1.35;;
23782;SDS011;12071;50.850;4.446;2023-04-03T14:49:14;3.10;;;1.50;;
23782;SDS011;12071;50.850;4.446;2023-04-03T14:51:42;3.28;;;1.38;;
23782;SDS011;12071;50.850;4.446;2023-04-03T14:54:16;2.25;;;1.08;;
23782;SDS011;12071;50.850;4.446;2023-04-03T14:56:43;2.88;;;1.10;;
23782;SDS011;12071;50.850;4.446;2023-04-03T14:59:13;3.13;;;1.10;;
23782;SDS011;12071;50.850;4.446;2023-04-03T15:01:40;5.63;;;1.30;;
23782;SDS011;12071;50.850;4.446;2023-04-03T15:04:12;5.50;;;1.58;;
23782;SDS011;12071;50.850;4.446;2023-04-03T15:06:39;3.90;;;1.58;;
23782;SDS011;12071;50.850;4.446;2023-04-03T15:09:08;4.03;;;1.58;;
23782;SDS011;12071;50.850;4.446;2023-04-03T15:11:46;3.80;;;1.20;;
23782;SDS011;12071;50.850;4.446;2023-04-03T15:14:12;2.33;;;1.27;;
23782;SDS011;12071;50.850;4.446;2023-04-03T15:16:38;2.85;;;1.30;;
23782;SDS011;12071;50.850;4.446;2023-04-03T15:19:03;2.03;;;1.20;;
23782;SDS011;12071;50.850;4.446;2023-04-03T15:21:29;2.63;;;1.42;;
23782;SDS011;12071;50.850;4.446;2023-04-03T15:23:55;3.47;;;1.52;;
23782;SDS011;12071;50.850;4.446;2023-04-03T15:26:20;2.42;;;1.25;;
23782;SDS011;12071;50.850;4.446;2023-04-03T15:28:46;2.95;;;1.15;;
23782;SDS011;12071;50.850;4.446;2023-04-03T15:31:11;1.92;;;1.00;;
23782;SDS011;12071;50.850;4.446;2023-04-03T15:33:38;2.75;;;1.40;;
23782;SDS011;12071;50.850;4.446;2023-04-03T15:36:04;2.60;;;1.23;;
23782;SDS011;12071;50.850;4.446;2023-04-03T15:38:30;4.32;;;1.40;;
23782;SDS011;12071;50.850;4.446;2023-04-03T15:40:56;2.78;;;1.65;;
23782;SDS011;12071;50.850;4.446;2023-04-03T15:43:21;4.28;;;1.70;;
23782;SDS011;12071;50.850;4.446;2023-04-03T15:45:47;2.45;;;1.50;;
23782;SDS011;12071;50.850;4.446;2023-04-03T15:48:14;3.90;;;1.50;;
23782;SDS011;12071;50.850;4.446;2023-04-03T15:50:41;2.90;;;1.30;;
23782;SDS011;12071;50.850;4.446;2023-04-03T15:53:07;3.00;;;1.45;;
23782;SDS011;12071;50.850;4.446;2023-04-03T15:55:34;3.83;;;1.80;;
23782;SDS011;12071;50.850;4.446;2023-04-03T15:58:02;4.45;;;1.63;;
23782;SDS011;12071;50.850;4.446;2023-04-03T16:00:28;3.85;;;1.70;;
23782;SDS011;12071;50.850;4.446;2023-04-03T16:02:57;5.13;;;1.75;;
23782;SDS011;12071;50.850;4.446;2023-04-03T16:05:26;3.17;;;1.55;;
23782;SDS011;12071;50.850;4.446;2023-04-03T16:07:52;4.97;;;1.80;;
23782;SDS011;12071;50.850;4.446;2023-04-03T16:10:18;2.65;;;1.50;;
23782;SDS011;12071;50.850;4.446;2023-04-03T16:12:44;2.38;;;1.50;;
23782;SDS011;12071;50.850;4.446;2023-04-03T16:15:10;3.33;;;1.60;;
23782;SDS011;12071;50.850;4.446;2023-04-03T16:17:36;3.85;;;1.83;;
23782;SDS011;12071;50.850;4.446;2023-04-03T16:20:03;4.38;;;1.80;;
23782;SDS011;12071;50.850;4.446;2023-04-03T16:22:31;4.55;;;1.80;;
23782;SDS011;12071;50.850;4.446;2023-04-03T16:24:56;4.38;;;2.30;;
23782;SDS011;12071;50.850;4.446;2023-04-03T16:27:23;3.40;;;1.70;;
23782;SDS011;12071;50.850;4.446;2023-04-03T16:29:57;2.97;;;1.83;;
23782;SDS011;12071;50.850;4.446;2023-04-03T16:32:23;6.20;;;2.35;;
23782;SDS011;12071;50.850;4.446;2023-04-03T16:34:51;6.50;;;1.90;;
23782;SDS011;12071;50.850;4.446;2023-04-03T16:37:17;4.63;;;2.28;;
23782;SDS011;12071;50.850;4.446;2023-04-03T16:39:42;4.30;;;1.95;;
23782;SDS011;12071;50.850;4.446;2023-04-03T16:42:08;2.83;;;1.75;;
23782;SDS011;12071;50.850;4.446;2023-04-03T16:44:35;4.47;;;2.05;;
23782;SDS011;12071;50.850;4.446;2023-04-03T16:47:01;3.75;;;1.90;;
23782;SDS011;12071;50.850;4.446;2023-04-03T16:49:27;6.03;;;2.00;;
23782;SDS011;12071;50.850;4.446;2023-04-03T16:51:58;5.00;;;1.55;;